BAW63V EGCC-MDPP
Flight info
| Callsign | BAW63V |
|---|---|
| Flight time | N/A |
| Altitude | 36000 |
| Route | EKLAD Y53 WAL L10 PENIL M144 BAGSO DCT LIMRI/M082F360 DCT 51N020W 47N030W 42N040W 36N050W DCT SIFEN M596 WATRS/N0479F360 M596 POKEG POKEG2S |
| Aircraft | B772/H-SDE2E3FGHIJ5LORVWXY/LB1D1 |
Departure
| Time | N/A |
|---|---|
| Airport | Manchester Airport (EGCC) |
Arrival
| Time | 2026-05-05 22:25 |
|---|---|
| Airport | Gregorio Luperon International Airport (MDPP) |
| Time | Latitude | Longitude | Altitude | Speed | Heading |
|---|---|---|---|---|---|
| 2026-05-05 21:56 | 21.05435 | -68.91481 | 38031 ft | 441 kts | 234° |
| 2026-05-05 21:56 | 21.03527 | -68.94062 | 37989 ft | 446 kts | 234° |
| 2026-05-05 21:56 | 21.01576 | -68.96705 | 37563 ft | 457 kts | 234° |
| 2026-05-05 21:57 | 20.99624 | -68.99344 | 37127 ft | 457 kts | 234° |
| 2026-05-05 21:57 | 20.97659 | -69.01995 | 36687 ft | 452 kts | 234° |
| 2026-05-05 21:57 | 20.95710 | -69.04624 | 36229 ft | 450 kts | 234° |
| 2026-05-05 21:57 | 20.93766 | -69.07249 | 35794 ft | 450 kts | 234° |
| 2026-05-05 21:58 | 20.91819 | -69.09877 | 35337 ft | 451 kts | 234° |
| 2026-05-05 21:58 | 20.89863 | -69.12518 | 34906 ft | 456 kts | 234° |
| 2026-05-05 21:58 | 20.87868 | -69.15208 | 34467 ft | 462 kts | 234° |
| 2026-05-05 21:58 | 20.85870 | -69.17910 | 34023 ft | 464 kts | 234° |
| 2026-05-05 21:59 | 20.83869 | -69.20624 | 33575 ft | 465 kts | 234° |
| 2026-05-05 21:59 | 20.81863 | -69.23345 | 33129 ft | 463 kts | 234° |
| 2026-05-05 21:59 | 20.79913 | -69.25986 | 32641 ft | 454 kts | 234° |
| 2026-05-05 21:59 | 20.77970 | -69.28617 | 32078 ft | 447 kts | 234° |
| 2026-05-05 22:00 | 20.76050 | -69.31208 | 31526 ft | 441 kts | 234° |
| 2026-05-05 22:00 | 20.74145 | -69.33764 | 30968 ft | 435 kts | 233° |
| 2026-05-05 22:00 | 20.72267 | -69.36273 | 30417 ft | 430 kts | 233° |
| 2026-05-05 22:00 | 20.70408 | -69.38755 | 29864 ft | 425 kts | 233° |
| 2026-05-05 22:01 | 20.68568 | -69.41211 | 29308 ft | 420 kts | 233° |
| 2026-05-05 22:01 | 20.66747 | -69.43643 | 28752 ft | 416 kts | 233° |
| 2026-05-05 22:01 | 20.64969 | -69.46020 | 28209 ft | 412 kts | 233° |
| 2026-05-05 22:01 | 20.63191 | -69.48397 | 27665 ft | 408 kts | 233° |
| 2026-05-05 22:02 | 20.61418 | -69.50766 | 27095 ft | 405 kts | 233° |
| 2026-05-05 22:02 | 20.59664 | -69.53108 | 26561 ft | 402 kts | 233° |
| 2026-05-05 22:02 | 20.57922 | -69.55434 | 26011 ft | 400 kts | 233° |
| 2026-05-05 22:02 | 20.56193 | -69.57740 | 25461 ft | 397 kts | 233° |
| 2026-05-05 22:03 | 20.54468 | -69.60041 | 24913 ft | 395 kts | 233° |
| 2026-05-05 22:03 | 20.52756 | -69.62323 | 24366 ft | 393 kts | 233° |
| 2026-05-05 22:03 | 20.51058 | -69.64556 | 23824 ft | 391 kts | 232° |
| 2026-05-05 22:03 | 20.49288 | -69.66756 | 23276 ft | 390 kts | 231° |
| 2026-05-05 22:04 | 20.47512 | -69.68937 | 22727 ft | 388 kts | 231° |
| 2026-05-05 22:04 | 20.45754 | -69.71109 | 22180 ft | 386 kts | 231° |
| 2026-05-05 22:04 | 20.44007 | -69.73280 | 21637 ft | 384 kts | 231° |
| 2026-05-05 22:04 | 20.42256 | -69.75431 | 21093 ft | 383 kts | 230° |
| 2026-05-05 22:05 | 20.40502 | -69.77563 | 20540 ft | 381 kts | 230° |
| 2026-05-05 22:05 | 20.38753 | -69.79685 | 20013 ft | 378 kts | 230° |
| 2026-05-05 22:05 | 20.37023 | -69.81785 | 19447 ft | 376 kts | 230° |
| 2026-05-05 22:05 | 20.35316 | -69.83857 | 18902 ft | 375 kts | 230° |
| 2026-05-05 22:06 | 20.33602 | -69.85940 | 18354 ft | 373 kts | 230° |
| 2026-05-05 22:06 | 20.31893 | -69.88018 | 17807 ft | 372 kts | 230° |
| 2026-05-05 22:06 | 20.30187 | -69.90092 | 17258 ft | 370 kts | 230° |
| 2026-05-05 22:06 | 20.28495 | -69.92149 | 16707 ft | 369 kts | 230° |
| 2026-05-05 22:07 | 20.26803 | -69.94203 | 16157 ft | 367 kts | 230° |
| 2026-05-05 22:07 | 20.25122 | -69.96245 | 15634 ft | 365 kts | 230° |
| 2026-05-05 22:07 | 20.23448 | -69.98280 | 15071 ft | 364 kts | 230° |
| 2026-05-05 22:07 | 20.21779 | -70.00309 | 14508 ft | 364 kts | 229° |
| 2026-05-05 22:08 | 20.20122 | -70.02318 | 14175 ft | 356 kts | 229° |
| 2026-05-05 22:08 | 20.18526 | -70.04253 | 14012 ft | 345 kts | 229° |
| 2026-05-05 22:08 | 20.17006 | -70.06154 | 14003 ft | 329 kts | 233° |
| 2026-05-05 22:08 | 20.15726 | -70.08110 | 13904 ft | 316 kts | 237° |
| 2026-05-05 22:09 | 20.14551 | -70.10087 | 13537 ft | 313 kts | 238° |
| 2026-05-05 22:09 | 20.13416 | -70.12033 | 13301 ft | 305 kts | 238° |
| 2026-05-05 22:09 | 20.12300 | -70.13932 | 13087 ft | 301 kts | 237° |
| 2026-05-05 22:09 | 20.11186 | -70.15809 | 12902 ft | 299 kts | 237° |
| 2026-05-05 22:10 | 20.10072 | -70.17670 | 12705 ft | 297 kts | 237° |
| 2026-05-05 22:10 | 20.08959 | -70.19518 | 12538 ft | 296 kts | 237° |
| 2026-05-05 22:10 | 20.07851 | -70.21352 | 12337 ft | 301 kts | 237° |
| 2026-05-05 22:10 | 20.06710 | -70.23232 | 12123 ft | 302 kts | 236° |
| 2026-05-05 22:11 | 20.05570 | -70.25109 | 11927 ft | 301 kts | 236° |
| 2026-05-05 22:11 | 20.04439 | -70.26969 | 11748 ft | 299 kts | 236° |
| 2026-05-05 22:11 | 20.03312 | -70.28821 | 11543 ft | 298 kts | 236° |
| 2026-05-05 22:11 | 20.02185 | -70.30674 | 11336 ft | 297 kts | 236° |
| 2026-05-05 22:12 | 20.01075 | -70.32496 | 11152 ft | 296 kts | 236° |
| 2026-05-05 22:12 | 19.99952 | -70.34336 | 10958 ft | 296 kts | 236° |
| 2026-05-05 22:12 | 19.98832 | -70.36172 | 10767 ft | 296 kts | 236° |
| 2026-05-05 22:12 | 19.97712 | -70.38008 | 10566 ft | 296 kts | 236° |
| 2026-05-05 22:13 | 19.96591 | -70.39845 | 10389 ft | 296 kts | 235° |
| 2026-05-05 22:13 | 19.95470 | -70.41683 | 10189 ft | 296 kts | 235° |
| 2026-05-05 22:13 | 19.94361 | -70.43500 | 9989 ft | 289 kts | 235° |
| 2026-05-05 22:13 | 19.93276 | -70.45276 | 9810 ft | 284 kts | 235° |
| 2026-05-05 22:14 | 19.92551 | -70.46461 | 9673 ft | 282 kts | 235° |
| 2026-05-05 22:14 | 19.91499 | -70.48184 | 9494 ft | 281 kts | 234° |
| 2026-05-05 22:14 | 19.90436 | -70.49925 | 9322 ft | 281 kts | 234° |
| 2026-05-05 22:14 | 19.89376 | -70.51659 | 9126 ft | 280 kts | 234° |
| 2026-05-05 22:15 | 19.88316 | -70.53390 | 8970 ft | 278 kts | 234° |
| 2026-05-05 22:15 | 19.87265 | -70.55106 | 8851 ft | 276 kts | 234° |
| 2026-05-05 22:15 | 19.86209 | -70.56831 | 8732 ft | 280 kts | 234° |
| 2026-05-05 22:15 | 19.85142 | -70.58572 | 8591 ft | 283 kts | 234° |
| 2026-05-05 22:16 | 19.84074 | -70.60319 | 8482 ft | 281 kts | 234° |
| 2026-05-05 22:16 | 19.83025 | -70.62036 | 8351 ft | 269 kts | 234° |
| 2026-05-05 22:16 | 19.82060 | -70.63614 | 8230 ft | 258 kts | 234° |
| 2026-05-05 22:16 | 19.81100 | -70.65182 | 8111 ft | 248 kts | 234° |
| 2026-05-05 22:17 | 19.80169 | -70.66701 | 8009 ft | 243 kts | 234° |
| 2026-05-05 22:17 | 19.79410 | -70.68312 | 7704 ft | 246 kts | 249° |
| 2026-05-05 22:17 | 19.78918 | -70.70055 | 7397 ft | 247 kts | 252° |
| 2026-05-05 22:17 | 19.78458 | -70.71798 | 7056 ft | 249 kts | 251° |
| 2026-05-05 22:18 | 19.77972 | -70.73572 | 6697 ft | 250 kts | 251° |
| 2026-05-05 22:18 | 19.77472 | -70.75350 | 6362 ft | 251 kts | 250° |
| 2026-05-05 22:18 | 19.76962 | -70.77128 | 6032 ft | 252 kts | 250° |
| 2026-05-05 22:18 | 19.76446 | -70.78914 | 5636 ft | 254 kts | 250° |
| 2026-05-05 22:19 | 19.75770 | -70.80575 | 5245 ft | 244 kts | 230° |
| 2026-05-05 22:19 | 19.74460 | -70.81629 | 4914 ft | 235 kts | 198° |
| 2026-05-05 22:19 | 19.72883 | -70.81907 | 4647 ft | 228 kts | 177° |
| 2026-05-05 22:19 | 19.71363 | -70.81578 | 4336 ft | 220 kts | 154° |
| 2026-05-05 22:20 | 19.70227 | -70.80533 | 4051 ft | 217 kts | 122° |
| 2026-05-05 22:20 | 19.69731 | -70.79039 | 3815 ft | 214 kts | 100° |
| 2026-05-05 22:20 | 19.69805 | -70.77503 | 3590 ft | 210 kts | 79° |
| 2026-05-05 22:20 | 19.70210 | -70.76042 | 3354 ft | 203 kts | 75° |
| 2026-05-05 22:21 | 19.70626 | -70.74663 | 3136 ft | 194 kts | 74° |
| 2026-05-05 22:21 | 19.71033 | -70.73333 | 3079 ft | 185 kts | 74° |
| 2026-05-05 22:21 | 19.71422 | -70.72028 | 3030 ft | 188 kts | 76° |
| 2026-05-05 22:21 | 19.71794 | -70.70763 | 3012 ft | 190 kts | 76° |
| 2026-05-05 22:22 | 19.72201 | -70.69422 | 2847 ft | 190 kts | 74° |
| 2026-05-05 22:22 | 19.72651 | -70.68097 | 2535 ft | 189 kts | 71° |
| 2026-05-05 22:22 | 19.73061 | -70.66811 | 2241 ft | 175 kts | 75° |
| 2026-05-05 22:22 | 19.73371 | -70.65634 | 1994 ft | 159 kts | 75° |
| 2026-05-05 22:23 | 19.73634 | -70.64576 | 1682 ft | 144 kts | 76° |
| 2026-05-05 22:23 | 19.73878 | -70.63548 | 1347 ft | 144 kts | 74° |
| 2026-05-05 22:23 | 19.74175 | -70.62510 | 1080 ft | 148 kts | 72° |
| 2026-05-05 22:23 | 19.74485 | -70.61470 | 835 ft | 146 kts | 72° |
| 2026-05-05 22:24 | 19.74793 | -70.60457 | 621 ft | 143 kts | 71° |
| 2026-05-05 22:24 | 19.75086 | -70.59446 | 380 ft | 143 kts | 73° |
| 2026-05-05 22:24 | 19.75376 | -70.58424 | 90 ft | 146 kts | 72° |
| 2026-05-05 22:24 | 19.75650 | -70.57475 | 25 ft | 120 kts | 73° |
| 2026-05-05 22:25 | 19.75844 | -70.56808 | 31 ft | 67 kts | 73° |
| 2026-05-05 22:25 | 19.75919 | -70.56549 | 34 ft | 25 kts | 71° |
| 2026-05-05 22:25 | 19.75900 | -70.56436 | 33 ft | 15 kts | 160° |
| 2026-05-05 22:25 | 19.75800 | -70.56404 | 34 ft | 13 kts | 164° |
| 2026-05-05 22:26 | 19.75731 | -70.56383 | 36 ft | 9 kts | 166° |
| 2026-05-05 22:26 | 19.75672 | -70.56399 | 39 ft | 7 kts | 209° |
| 2026-05-05 22:26 | 19.75633 | -70.56424 | 43 ft | 4 kts | 210° |
| 2026-05-05 22:26 | 19.75615 | -70.56434 | 44 ft | 0 kts | 210° |